Gladehill, Virginia
Current Conditions -  °F | °C
As of 11:54 PM on Saturday 25 Oct 2014 (Local Time) from KROA Reporting Station
Clear Clear  
Wind Chill: 61°   Ceiling: Unl
Heat Index: 61°   Visibility: 10mi
Dew Point: 49°   Wind: 5mph
Humidity: 64%   Direction: 220°SW
Pressure: 29.87"   Gusts: NA
Location:  36.99°N, 79.77°W
Report Text: KROA 260354Z 22004KT 10SM CLR 16/09 A2987 RMK AO2 SLP108 T01610094
Loading
Personal Weather Stations






























Interactive Weather Map
Tropical Storm Tracking
New forecast layout! Learn more

10-Day Weather Forecast

Advertisements
Track Severe Weather on mobile